Time;durP1;ratioP1;P1;durP2;ratioP2;P2;SDS_P1;SDS_P2;PMS_P1;PMS_P2;Temp;Humidity;BMP_temperature;BMP_pressure;BME280_temperature;BME280_humidity;BME280_pressure;Samples;Min_cycle;Max_cycle;Signal;HPM_P1;HPM_P2
2021/08/31 00:01:30;;;;;;;4.07;3.67;;;;;;;;;;5018406;28;20217;-75
2021/08/31 00:04:34;;;;;;;6.17;4.87;;;;;;;;;;5016395;28;20557;-75
2021/08/31 00:07:38;;;;;;;5.97;3.87;;;;;;;;;;5017887;28;20209;-75
2021/08/31 00:10:42;;;;;;;4.60;4.10;;;;;;;;;;5031220;28;20197;-75
2021/08/31 00:13:46;;;;;;;5.50;4.30;;;;;;;;;;5019933;28;20193;-74
2021/08/31 00:16:50;;;;;;;4.80;4.37;;;;;;;;;;5016292;28;20201;-75
2021/08/31 00:19:54;;;;;;;6.27;4.30;;;;;;;;;;5017239;28;20185;-76
2021/08/31 00:22:58;;;;;;;4.77;4.17;;;;;;;;;;5036019;28;20181;-76
2021/08/31 00:26:03;;;;;;;4.80;4.20;;;;;;;;;;5029747;28;20178;-75
2021/08/31 00:29:08;;;;;;;5.07;3.87;;;;;;;;;;5024473;28;20185;-75
2021/08/31 00:32:12;;;;;;;4.37;3.80;;;;;;;;;;5013412;28;20251;-75
2021/08/31 00:35:27;;;;;;;4.87;3.77;;;;;;;;;;5023560;28;20196;-75
2021/08/31 00:38:31;;;;;;;4.33;3.43;;;;;;;;;;5035262;28;20192;-75
2021/08/31 00:41:36;;;;;;;3.90;3.50;;;;;;;;;;5029740;28;20228;-75
2021/08/31 00:44:40;;;;;;;4.70;3.63;;;;;;;;;;5033294;28;20687;-75
2021/08/31 00:47:44;;;;;;;4.57;3.43;;;;;;;;;;5030880;28;20189;-75
2021/08/31 00:50:50;;;;;;;4.77;3.00;;;;;;;;;;5016907;28;20225;-75
2021/08/31 00:53:54;;;;;;;3.37;3.07;;;;;;;;;;5019690;28;20189;-75
2021/08/31 00:57:03;;;;;;;6.80;3.17;;;;;;;;;;5025239;28;20666;-75
2021/08/31 01:00:11;;;;;;;3.33;2.87;;;;;;;;;;5010925;28;20181;-75
2021/08/31 01:03:16;;;;;;;4.00;2.90;;;;;;;;;;5015054;28;20632;-75
2021/08/31 01:06:21;;;;;;;3.30;2.70;;;;;;;;;;5015578;28;20672;-75
2021/08/31 01:09:26;;;;;;;4.63;2.70;;;;;;;;;;5015665;28;20189;-76
2021/08/31 01:12:30;;;;;;;6.73;3.10;;;;;;;;;;5026041;28;20232;-75
2021/08/31 01:15:34;;;;;;;4.17;2.83;;;;;;;;;;5034767;28;20204;-75
2021/08/31 01:18:38;;;;;;;4.17;2.83;;;;;;;;;;5008568;28;20524;-75
2021/08/31 01:21:43;;;;;;;3.67;2.87;;;;;;;;;;5023057;28;20225;-75
2021/08/31 01:24:56;;;;;;;4.73;2.87;;;;;;;;;;5014357;28;20209;-76
2021/08/31 01:28:00;;;;;;;6.27;3.60;;;;;;;;;;4979817;28;20201;-76
2021/08/31 01:31:05;;;;;;;4.37;2.80;;;;;;;;;;5023135;28;20726;-75
2021/08/31 01:34:09;;;;;;;3.77;2.80;;;;;;;;;;5030032;28;20192;-75
2021/08/31 01:37:13;;;;;;;3.33;2.97;;;;;;;;;;5002856;28;20206;-75
2021/08/31 01:40:17;;;;;;;8.03;3.70;;;;;;;;;;5029984;28;20197;-75
2021/08/31 01:43:26;;;;;;;4.03;3.57;;;;;;;;;;5015820;28;20193;-75
2021/08/31 01:46:30;;;;;;;4.83;3.60;;;;;;;;;;5025529;28;20522;-75
2021/08/31 01:49:34;;;;;;;5.30;3.70;;;;;;;;;;5014776;28;20648;-75
2021/08/31 01:52:38;;;;;;;6.83;3.93;;;;;;;;;;5015565;28;20221;-75
2021/08/31 01:55:42;;;;;;;4.37;3.83;;;;;;;;;;5015481;28;20197;-75
2021/08/31 01:58:46;;;;;;;5.03;4.30;;;;;;;;;;5014622;28;20181;-75
2021/08/31 02:01:50;;;;;;;5.80;4.20;;;;;;;;;;5033783;28;20220;-75
2021/08/31 02:04:55;;;;;;;4.53;4.13;;;;;;;;;;5033539;28;20208;-76
2021/08/31 02:07:59;;;;;;;4.70;4.20;;;;;;;;;;5020969;28;20193;-75
2021/08/31 02:11:04;;;;;;;4.80;4.10;;;;;;;;;;5019031;28;20224;-75
2021/08/31 02:14:07;;;;;;;5.23;4.57;;;;;;;;;;5023939;28;20194;-75
2021/08/31 02:17:11;;;;;;;5.83;4.73;;;;;;;;;;5013312;28;20178;-76
2021/08/31 02:20:16;;;;;;;5.43;4.63;;;;;;;;;;5018686;28;20188;-75
2021/08/31 02:23:20;;;;;;;6.60;4.23;;;;;;;;;;5032161;28;20200;-75
2021/08/31 02:26:24;;;;;;;4.47;3.73;;;;;;;;;;5024768;28;20217;-75
2021/08/31 02:29:28;;;;;;;4.30;3.90;;;;;;;;;;5030032;28;20532;-75
2021/08/31 02:32:33;;;;;;;5.87;4.20;;;;;;;;;;5021470;28;20216;-75
2021/08/31 02:35:37;;;;;;;5.67;4.00;;;;;;;;;;5032773;28;20185;-75
2021/08/31 02:38:42;;;;;;;4.60;4.13;;;;;;;;;;5013315;28;20189;-75
2021/08/31 02:41:46;;;;;;;7.47;4.63;;;;;;;;;;5013899;28;20220;-75
2021/08/31 02:44:50;;;;;;;5.00;4.30;;;;;;;;;;5012844;28;20217;-75
2021/08/31 02:47:54;;;;;;;5.30;4.47;;;;;;;;;;4999441;28;20180;-75
2021/08/31 02:50:59;;;;;;;6.47;4.50;;;;;;;;;;5020470;28;20220;-75
2021/08/31 02:54:03;;;;;;;7.67;4.13;;;;;;;;;;5033223;28;20188;-75
2021/08/31 02:57:07;;;;;;;4.73;4.10;;;;;;;;;;5023870;28;20201;-76
2021/08/31 03:00:18;;;;;;;4.27;3.87;;;;;;;;;;5012908;28;20190;-75
2021/08/31 03:03:22;;;;;;;7.87;3.97;;;;;;;;;;5003867;28;20205;-75
2021/08/31 03:06:28;;;;;;;7.83;4.10;;;;;;;;;;5000355;22;20241;-75
2021/08/31 03:09:32;;;;;;;6.17;4.30;;;;;;;;;;5016968;28;20185;-75
2021/08/31 03:12:37;;;;;;;5.30;4.80;;;;;;;;;;5022080;28;20228;-75
2021/08/31 03:15:42;;;;;;;6.90;4.10;;;;;;;;;;5032312;28;20185;-75
2021/08/31 03:18:46;;;;;;;7.93;4.50;;;;;;;;;;4994427;28;20186;-75
2021/08/31 03:21:55;;;;;;;5.10;4.53;;;;;;;;;;5014821;28;20220;-75
2021/08/31 03:24:59;;;;;;;7.27;5.00;;;;;;;;;;5030818;28;20544;-75
2021/08/31 03:28:03;;;;;;;14.37;5.60;;;;;;;;;;5007485;28;20193;-75
2021/08/31 03:31:08;;;;;;;7.13;6.13;;;;;;;;;;5012700;28;20549;-75
2021/08/31 03:34:13;;;;;;;9.20;6.13;;;;;;;;;;5012816;28;20178;-75
2021/08/31 03:37:17;;;;;;;7.33;5.90;;;;;;;;;;5009588;28;20644;-75
2021/08/31 03:40:20;;;;;;;7.50;5.37;;;;;;;;;;5021621;28;20208;-75
2021/08/31 03:43:25;;;;;;;7.50;5.90;;;;;;;;;;5032979;28;20177;-75
2021/08/31 03:46:29;;;;;;;6.77;5.20;;;;;;;;;;4979663;28;20213;-75
2021/08/31 03:49:33;;;;;;;6.70;5.33;;;;;;;;;;5022165;28;20196;-75
2021/08/31 03:52:37;;;;;;;6.33;5.27;;;;;;;;;;5012586;28;20217;-75
2021/08/31 03:55:41;;;;;;;6.17;5.53;;;;;;;;;;5029532;28;20185;-75
2021/08/31 03:58:45;;;;;;;8.00;5.20;;;;;;;;;;5021029;28;20521;-75
2021/08/31 04:01:49;;;;;;;7.27;4.73;;;;;;;;;;5014025;28;20232;-75
2021/08/31 04:04:53;;;;;;;6.93;4.80;;;;;;;;;;4992864;28;20642;-75
2021/08/31 04:07:57;;;;;;;6.97;4.50;;;;;;;;;;5009459;28;20213;-75
2021/08/31 04:11:01;;;;;;;5.87;5.10;;;;;;;;;;5024533;28;20220;-74
2021/08/31 04:14:05;;;;;;;5.60;4.63;;;;;;;;;;5031747;28;20184;-74
2021/08/31 04:17:10;;;;;;;5.67;5.07;;;;;;;;;;5023196;28;20644;-75
2021/08/31 04:20:14;;;;;;;6.10;4.50;;;;;;;;;;5016357;28;20197;-75
2021/08/31 04:23:18;;;;;;;8.07;5.33;;;;;;;;;;5023648;28;20200;-75
2021/08/31 04:26:22;;;;;;;5.73;4.87;;;;;;;;;;5034356;28;20212;-75
2021/08/31 04:29:26;;;;;;;7.90;5.13;;;;;;;;;;5033474;28;20204;-75
2021/08/31 04:32:30;;;;;;;7.43;5.53;;;;;;;;;;5014186;28;20220;-75
2021/08/31 04:35:34;;;;;;;6.87;4.77;;;;;;;;;;5015556;28;20202;-75
2021/08/31 04:38:38;;;;;;;5.47;4.70;;;;;;;;;;5015580;28;20200;-75
2021/08/31 04:41:42;;;;;;;8.27;4.83;;;;;;;;;;5026230;28;20694;-75
2021/08/31 04:44:46;;;;;;;8.97;5.50;;;;;;;;;;5022170;28;20648;-75
2021/08/31 04:47:50;;;;;;;6.13;5.33;;;;;;;;;;5015914;28;20165;-75
2021/08/31 04:50:55;;;;;;;8.47;5.47;;;;;;;;;;5026512;28;20224;-75
2021/08/31 04:53:59;;;;;;;10.07;5.77;;;;;;;;;;5001350;28;20522;-75
2021/08/31 04:57:03;;;;;;;12.00;5.73;;;;;;;;;;5016703;28;20509;-74
2021/08/31 05:00:08;;;;;;;8.53;5.87;;;;;;;;;;5033427;28;20185;-75
2021/08/31 05:03:12;;;;;;;6.50;5.50;;;;;;;;;;5004400;28;20514;-74
2021/08/31 05:06:16;;;;;;;8.43;6.03;;;;;;;;;;5030486;28;20220;-75
2021/08/31 05:09:20;;;;;;;10.67;7.03;;;;;;;;;;5016562;28;20197;-75
2021/08/31 05:12:24;;;;;;;13.67;8.27;;;;;;;;;;5020657;28;20225;-75
2021/08/31 05:15:28;;;;;;;9.87;7.83;;;;;;;;;;5015289;28;20190;-75
2021/08/31 05:18:32;;;;;;;9.97;7.20;;;;;;;;;;5014536;28;20178;-75
2021/08/31 05:21:36;;;;;;;11.77;8.60;;;;;;;;;;5031090;28;20571;-75
2021/08/31 05:24:40;;;;;;;9.30;7.80;;;;;;;;;;5031852;28;20193;-75
2021/08/31 05:27:45;;;;;;;10.83;8.53;;;;;;;;;;5033937;28;20207;-76
2021/08/31 05:30:49;;;;;;;9.80;7.73;;;;;;;;;;5030986;28;20217;-75
2021/08/31 05:33:53;;;;;;;8.60;7.47;;;;;;;;;;5014331;28;20189;-75
2021/08/31 05:36:57;;;;;;;10.60;7.57;;;;;;;;;;5014217;28;20177;-75
2021/08/31 05:40:01;;;;;;;7.77;6.97;;;;;;;;;;5017538;28;20196;-75
2021/08/31 05:43:05;;;;;;;8.20;7.30;;;;;;;;;;5032226;28;20192;-75
2021/08/31 05:46:09;;;;;;;9.77;8.07;;;;;;;;;;5009626;28;20205;-75
2021/08/31 05:49:13;;;;;;;8.93;6.53;;;;;;;;;;5012266;28;20194;-75
2021/08/31 05:52:17;;;;;;;8.93;7.00;;;;;;;;;;5014208;28;20225;-75
2021/08/31 05:55:22;;;;;;;23.17;17.43;;;;;;;;;;5014632;28;20182;-74
2021/08/31 05:58:26;;;;;;;8.77;7.43;;;;;;;;;;5014592;28;20540;-75
2021/08/31 06:01:30;;;;;;;9.63;6.70;;;;;;;;;;5013808;28;20224;-75
2021/08/31 06:04:38;;;;;;;8.10;6.60;;;;;;;;;;5006038;28;20643;-75
2021/08/31 06:07:42;;;;;;;7.37;6.63;;;;;;;;;;5028782;28;20224;-76
2021/08/31 06:10:46;;;;;;;8.90;6.43;;;;;;;;;;5019639;28;20224;-76
2021/08/31 06:13:50;;;;;;;16.90;7.13;;;;;;;;;;5028389;28;20679;-75
2021/08/31 06:16:54;;;;;;;7.93;6.87;;;;;;;;;;5014245;28;20181;-75
2021/08/31 06:19:59;;;;;;;7.37;6.60;;;;;;;;;;5027374;28;20197;-75
2021/08/31 06:23:03;;;;;;;8.47;6.60;;;;;;;;;;5033396;28;20624;-76
2021/08/31 06:26:07;;;;;;;10.97;9.23;;;;;;;;;;5019836;28;20220;-75
2021/08/31 06:29:12;;;;;;;8.67;6.70;;;;;;;;;;5023530;28;20201;-76
2021/08/31 06:32:16;;;;;;;12.63;6.63;;;;;;;;;;5013537;28;20221;-75
2021/08/31 06:35:20;;;;;;;9.67;6.70;;;;;;;;;;5014503;28;20182;-75
2021/08/31 06:38:24;;;;;;;7.77;6.40;;;;;;;;;;5016305;28;20189;-75
2021/08/31 06:41:28;;;;;;;8.87;7.03;;;;;;;;;;5032895;28;20216;-75
2021/08/31 06:44:32;;;;;;;9.80;6.70;;;;;;;;;;4993394;28;20197;-75
2021/08/31 06:47:36;;;;;;;8.33;6.23;;;;;;;;;;4993915;28;20217;-76
2021/08/31 06:50:40;;;;;;;8.83;6.60;;;;;;;;;;5002617;28;20659;-76
2021/08/31 06:53:44;;;;;;;11.70;6.27;;;;;;;;;;5013665;28;20197;-75
2021/08/31 06:56:49;;;;;;;7.50;6.37;;;;;;;;;;5020315;28;20177;-74
2021/08/31 06:59:53;;;;;;;9.63;5.80;;;;;;;;;;5033598;28;20200;-76
2021/08/31 07:02:57;;;;;;;6.30;5.63;;;;;;;;;;5032237;28;20201;-76
2021/08/31 07:06:01;;;;;;;6.70;5.67;;;;;;;;;;5021246;28;20208;-76
2021/08/31 07:09:06;;;;;;;8.60;5.80;;;;;;;;;;5033564;28;20189;-75
2021/08/31 07:12:12;;;;;;;6.43;5.73;;;;;;;;;;4993812;28;20217;-76
2021/08/31 07:15:16;;;;;;;6.70;5.87;;;;;;;;;;4994147;28;20190;-75
2021/08/31 07:18:20;;;;;;;8.23;6.30;;;;;;;;;;5018750;28;20185;-76
2021/08/31 07:21:24;;;;;;;7.07;6.37;;;;;;;;;;5008711;28;20225;-75
2021/08/31 07:24:29;;;;;;;11.90;6.37;;;;;;;;;;5008195;28;20185;-75
2021/08/31 07:27:33;;;;;;;7.03;5.70;;;;;;;;;;5027225;28;20694;-75
2021/08/31 07:30:37;;;;;;;7.77;6.27;;;;;;;;;;5031627;28;20196;-75
2021/08/31 07:33:41;;;;;;;7.70;6.17;;;;;;;;;;5013330;28;20205;-75
2021/08/31 07:36:46;;;;;;;7.13;6.30;;;;;;;;;;5009837;28;20196;-75
2021/08/31 07:39:49;;;;;;;12.10;7.03;;;;;;;;;;5016464;28;20193;-76
2021/08/31 07:42:54;;;;;;;7.53;6.10;;;;;;;;;;5013413;28;20193;-75
2021/08/31 07:45:57;;;;;;;9.20;6.20;;;;;;;;;;5018221;28;20664;-75
2021/08/31 07:49:02;;;;;;;10.23;6.30;;;;;;;;;;4996889;28;20640;-76
2021/08/31 07:52:06;;;;;;;8.83;6.07;;;;;;;;;;5035916;28;20227;-76
2021/08/31 07:55:10;;;;;;;7.73;5.80;;;;;;;;;;5035874;28;20181;-76
2021/08/31 07:58:14;;;;;;;7.23;6.47;;;;;;;;;;5036891;28;20173;-76
2021/08/31 08:01:18;;;;;;;9.13;5.50;;;;;;;;;;5028838;28;20684;-75
2021/08/31 08:04:22;;;;;;;6.83;5.40;;;;;;;;;;5016659;28;20193;-76
2021/08/31 08:07:27;;;;;;;5.97;4.80;;;;;;;;;;5016238;28;20221;-76
2021/08/31 08:10:31;;;;;;;8.67;5.23;;;;;;;;;;5026999;28;20182;-76
2021/08/31 08:13:35;;;;;;;6.17;4.70;;;;;;;;;;5016554;28;20181;-76
2021/08/31 08:16:39;;;;;;;8.13;4.83;;;;;;;;;;5016656;28;20170;-76
2021/08/31 08:19:43;;;;;;;6.27;4.70;;;;;;;;;;5019161;28;20197;-75
2021/08/31 08:22:49;;;;;;;7.50;4.30;;;;;;;;;;5036047;28;20224;-76
2021/08/31 08:25:53;;;;;;;5.53;4.77;;;;;;;;;;4995885;28;20198;-75
2021/08/31 08:28:57;;;;;;;6.97;5.20;;;;;;;;;;4996686;28;20178;-76
2021/08/31 08:32:01;;;;;;;6.77;5.27;;;;;;;;;;5030000;28;20224;-76
2021/08/31 08:35:10;;;;;;;5.47;4.97;;;;;;;;;;5012459;28;20197;-75
2021/08/31 08:38:14;;;;;;;7.17;4.93;;;;;;;;;;5016332;28;20534;-76
2021/08/31 08:41:19;;;;;;;6.03;4.90;;;;;;;;;;5016214;28;20221;-76
2021/08/31 08:44:28;;;;;;;5.90;4.77;;;;;;;;;;5016519;28;20185;-76
2021/08/31 08:47:33;;;;;;;5.23;4.40;;;;;;;;;;5022740;28;20209;-76
2021/08/31 08:50:37;;;;;;;6.70;4.53;;;;;;;;;;5001473;28;20190;-76
2021/08/31 08:53:42;;;;;;;6.13;4.87;;;;;;;;;;5021375;28;20185;-75
2021/08/31 08:56:46;;;;;;;5.30;4.80;;;;;;;;;;5027950;28;20521;-76
2021/08/31 08:59:50;;;;;;;5.43;4.60;;;;;;;;;;5015697;28;20177;-76
2021/08/31 09:02:54;;;;;;;5.50;4.53;;;;;;;;;;5028640;28;20193;-75
2021/08/31 09:06:11;;;;;;;5.37;4.43;;;;;;;;;;5014895;28;20534;-76
2021/08/31 09:09:15;;;;;;;5.97;4.13;;;;;;;;;;5020938;28;20185;-75
2021/08/31 09:12:34;;;;;;;5.83;4.13;;;;;;;;;;5034440;28;20213;-75
2021/08/31 09:15:39;;;;;;;5.87;4.40;;;;;;;;;;5035165;28;20189;-76
2021/08/31 09:18:54;;;;;;;5.03;4.23;;;;;;;;;;5034028;28;20185;-75
2021/08/31 09:22:20;;;;;;;6.07;4.43;;;;;;;;;;5034947;28;20217;-76
2021/08/31 09:25:35;;;;;;;5.40;4.90;;;;;;;;;;5018647;28;20190;-75
2021/08/31 09:28:42;;;;;;;5.10;3.60;;;;;;;;;;5014323;28;20657;-76
2021/08/31 09:31:56;;;;;;;5.97;4.40;;;;;;;;;;5008971;28;20237;-75
2021/08/31 09:34:59;;;;;;;5.57;4.00;;;;;;;;;;5015492;28;20189;-76
2021/08/31 09:38:09;;;;;;;5.80;4.30;;;;;;;;;;5015213;28;20181;-76
2021/08/31 09:41:36;;;;;;;5.03;4.27;;;;;;;;;;5022522;28;20232;-76
2021/08/31 09:44:41;;;;;;;4.67;3.97;;;;;;;;;;5034392;28;20218;-76
2021/08/31 09:47:45;;;;;;;5.20;4.70;;;;;;;;;;5022677;28;20204;-76
2021/08/31 09:50:56;;;;;;;4.93;4.43;;;;;;;;;;5019117;28;20573;-75
2021/08/31 09:54:21;;;;;;;6.70;4.30;;;;;;;;;;5014167;28;20182;-76
2021/08/31 09:57:36;;;;;;;5.33;4.83;;;;;;;;;;5021317;28;20190;-75
2021/08/31 10:00:43;;;;;;;7.93;5.23;;;;;;;;;;5014734;28;20181;-75
2021/08/31 10:03:47;;;;;;;7.20;5.30;;;;;;;;;;5027501;28;20200;-75
2021/08/31 10:06:51;;;;;;;8.57;5.30;;;;;;;;;;5028501;28;20714;-75
2021/08/31 10:09:55;;;;;;;5.70;4.73;;;;;;;;;;5030609;28;20193;-75
2021/08/31 10:13:12;;;;;;;6.03;5.43;;;;;;;;;;5030765;28;20184;-75
2021/08/31 10:16:17;;;;;;;6.23;5.00;;;;;;;;;;5030681;28;20201;-74
2021/08/31 10:19:22;;;;;;;8.77;5.23;;;;;;;;;;4999686;28;20190;-75
2021/08/31 10:22:27;;;;;;;7.93;5.27;;;;;;;;;;5023406;28;20216;-75
2021/08/31 10:25:32;;;;;;;5.37;4.53;;;;;;;;;;5029484;28;20181;-75
2021/08/31 10:28:36;;;;;;;6.77;5.13;;;;;;;;;;5012419;28;20209;-75
2021/08/31 10:31:45;;;;;;;7.40;5.07;;;;;;;;;;5009354;28;20565;-75
2021/08/31 10:34:49;;;;;;;6.00;4.60;;;;;;;;;;5010649;28;20189;-75
2021/08/31 10:37:54;;;;;;;5.10;3.97;;;;;;;;;;4990900;28;20186;-75
2021/08/31 10:40:58;;;;;;;5.13;4.17;;;;;;;;;;4991531;28;20684;-75
2021/08/31 10:44:04;;;;;;;8.43;4.77;;;;;;;;;;5006340;28;20533;-74
2021/08/31 10:47:14;;;;;;;11.00;4.93;;;;;;;;;;5013473;28;20217;-76
2021/08/31 10:50:21;;;;;;;5.13;4.07;;;;;;;;;;5014126;28;20628;-76
2021/08/31 10:53:48;;;;;;;6.13;3.80;;;;;;;;;;5014079;28;20521;-76
2021/08/31 10:56:52;;;;;;;5.43;4.37;;;;;;;;;;5027413;28;20532;-75
2021/08/31 10:59:57;;;;;;;5.20;4.03;;;;;;;;;;5003792;28;20641;-76
2021/08/31 11:03:01;;;;;;;4.27;3.87;;;;;;;;;;5030116;28;20192;-75
2021/08/31 11:06:19;;;;;;;5.73;4.23;;;;;;;;;;5032588;28;20193;-76
2021/08/31 11:09:23;;;;;;;6.93;4.60;;;;;;;;;;5032749;28;20177;-76
2021/08/31 11:12:28;;;;;;;7.37;4.63;;;;;;;;;;5013783;28;20221;-75
2021/08/31 11:15:31;;;;;;;7.27;4.80;;;;;;;;;;5013380;28;20660;-75
2021/08/31 11:18:37;;;;;;;6.20;4.77;;;;;;;;;;4995519;28;20182;-76
2021/08/31 11:21:48;;;;;;;10.23;4.67;;;;;;;;;;4997361;28;20218;-76
2021/08/31 11:24:55;;;;;;;6.37;5.03;;;;;;;;;;4998118;28;20665;-75
2021/08/31 11:28:02;;;;;;;4.87;4.23;;;;;;;;;;5009486;28;20217;-75
2021/08/31 11:31:14;;;;;;;5.53;4.57;;;;;;;;;;5005283;28;20228;-76
2021/08/31 11:34:18;;;;;;;5.20;4.70;;;;;;;;;;5017569;28;20178;-76
2021/08/31 11:37:23;;;;;;;5.37;4.40;;;;;;;;;;5005236;28;20201;-75
2021/08/31 11:40:28;;;;;;;6.17;4.27;;;;;;;;;;4999068;28;20514;-76
2021/08/31 11:43:32;;;;;;;3.73;3.23;;;;;;;;;;5034378;28;20651;-76
2021/08/31 11:46:39;;;;;;;4.93;4.00;;;;;;;;;;5027919;28;20648;-76
2021/08/31 11:49:43;;;;;;;4.77;3.83;;;;;;;;;;5017342;28;20680;-76
2021/08/31 11:52:48;;;;;;;6.97;3.97;;;;;;;;;;5016949;28;20232;-76
2021/08/31 11:56:01;;;;;;;3.80;3.40;;;;;;;;;;4997476;28;20201;-76
2021/08/31 11:59:05;;;;;;;5.17;3.53;;;;;;;;;;4997431;28;20183;-76
2021/08/31 12:02:46;;;;;;;6.43;3.53;;;;;;;;;;5028424;28;20550;-76
2021/08/31 12:06:04;;;;;;;4.17;3.10;;;;;;;;;;5033019;28;20182;-76
2021/08/31 12:09:09;;;;;;;4.67;3.70;;;;;;;;;;5026938;28;20200;-75
2021/08/31 12:12:14;;;;;;;3.70;3.23;;;;;;;;;;5018969;28;20233;-75
2021/08/31 12:15:23;;;;;;;9.90;3.70;;;;;;;;;;5032229;28;20790;-76
2021/08/31 12:18:29;;;;;;;12.77;3.67;;;;;;;;;;5032715;28;20177;-75
2021/08/31 12:21:33;;;;;;;4.37;3.57;;;;;;;;;;5032868;28;20228;-75
2021/08/31 12:24:39;;;;;;;3.70;3.40;;;;;;;;;;5019756;28;20676;-75
2021/08/31 12:27:49;;;;;;;3.87;3.23;;;;;;;;;;5023023;28;20683;-75
2021/08/31 12:30:54;;;;;;;3.73;3.37;;;;;;;;;;5014207;28;20980;-75
2021/08/31 12:33:58;;;;;;;4.83;3.57;;;;;;;;;;5011587;28;20220;-75
2021/08/31 12:37:28;;;;;;;22.30;4.10;;;;;;;;;;5011848;28;20671;-75
2021/08/31 12:40:35;;;;;;;4.73;3.20;;;;;;;;;;5022599;28;20196;-75
2021/08/31 12:43:46;;;;;;;3.67;2.90;;;;;;;;;;4994326;28;20190;-75
2021/08/31 12:47:06;;;;;;;3.80;3.37;;;;;;;;;;5015443;28;20193;-75
2021/08/31 12:50:11;;;;;;;9.73;3.40;;;;;;;;;;5014250;28;20771;-76
2021/08/31 12:53:16;;;;;;;4.03;3.43;;;;;;;;;;5014777;28;20201;-76
2021/08/31 12:56:20;;;;;;;5.57;3.43;;;;;;;;;;5027681;28;20521;-75
2021/08/31 12:59:42;;;;;;;6.13;4.03;;;;;;;;;;5031003;28;20184;-75
2021/08/31 13:02:48;;;;;;;4.13;3.53;;;;;;;;;;5032037;28;20216;-74
2021/08/31 13:05:52;;;;;;;5.63;3.93;;;;;;;;;;5030634;28;20208;-75
2021/08/31 13:08:57;;;;;;;4.07;3.47;;;;;;;;;;5030926;28;20204;-74
2021/08/31 13:12:03;;;;;;;4.37;3.20;;;;;;;;;;5031638;28;20537;-76
2021/08/31 13:15:08;;;;;;;4.30;3.57;;;;;;;;;;5025061;28;20193;-75
2021/08/31 13:18:12;;;;;;;5.27;3.40;;;;;;;;;;4994524;28;20182;-75
2021/08/31 13:21:16;;;;;;;5.57;3.70;;;;;;;;;;5014415;28;20225;-75
2021/08/31 13:24:20;;;;;;;6.07;3.20;;;;;;;;;;5015198;28;20193;-76
2021/08/31 13:27:25;;;;;;;4.70;3.50;;;;;;;;;;5025564;28;20526;-75
2021/08/31 13:30:29;;;;;;;12.90;3.83;;;;;;;;;;5014223;28;20174;-75
2021/08/31 13:33:33;;;;;;;4.83;3.70;;;;;;;;;;5015095;28;20194;-75
2021/08/31 13:36:39;;;;;;;4.23;3.60;;;;;;;;;;5025931;28;20196;-75
2021/08/31 13:39:43;;;;;;;10.33;3.70;;;;;;;;;;4995357;28;20197;-76
2021/08/31 13:42:48;;;;;;;4.70;3.50;;;;;;;;;;4994242;28;20217;-75
2021/08/31 13:45:52;;;;;;;8.27;3.67;;;;;;;;;;5005763;28;20679;-75
2021/08/31 13:48:56;;;;;;;4.80;4.10;;;;;;;;;;5002742;28;20221;-75
2021/08/31 13:52:00;;;;;;;7.43;3.80;;;;;;;;;;5014006;28;20217;-76
2021/08/31 13:55:04;;;;;;;6.90;3.60;;;;;;;;;;5027074;28;20204;-75
2021/08/31 13:58:12;;;;;;;6.10;3.30;;;;;;;;;;5021102;28;20198;-75
2021/08/31 14:01:17;;;;;;;3.90;3.30;;;;;;;;;;5010190;28;20221;-76
2021/08/31 14:04:21;;;;;;;6.63;3.67;;;;;;;;;;5014753;28;20201;-75
2021/08/31 14:07:25;;;;;;;3.80;3.40;;;;;;;;;;5024903;28;20208;-75
2021/08/31 14:10:29;;;;;;;12.07;3.80;;;;;;;;;;5019222;28;20182;-75
2021/08/31 14:13:34;;;;;;;7.23;3.63;;;;;;;;;;5017751;28;20189;-75
2021/08/31 14:16:38;;;;;;;4.63;3.40;;;;;;;;;;5031511;28;20193;-76
2021/08/31 14:19:42;;;;;;;4.13;3.40;;;;;;;;;;5025380;28;20647;-76
2021/08/31 14:22:46;;;;;;;5.70;3.70;;;;;;;;;;4994661;28;20696;-75
2021/08/31 14:25:50;;;;;;;5.00;3.90;;;;;;;;;;5020589;28;20200;-75
2021/08/31 14:28:55;;;;;;;4.87;3.60;;;;;;;;;;5013065;28;20210;-76
2021/08/31 14:32:00;;;;;;;4.77;3.60;;;;;;;;;;5013248;28;20573;-75
2021/08/31 14:35:05;;;;;;;3.90;3.03;;;;;;;;;;5002269;28;20181;-75
2021/08/31 14:38:09;;;;;;;11.23;3.43;;;;;;;;;;5013074;28;20201;-75
2021/08/31 14:41:14;;;;;;;4.60;3.50;;;;;;;;;;5001954;28;20216;-75
2021/08/31 14:44:18;;;;;;;4.63;3.60;;;;;;;;;;5013105;28;20182;-75
2021/08/31 14:47:22;;;;;;;3.63;3.20;;;;;;;;;;5001924;28;20645;-76
2021/08/31 14:50:26;;;;;;;7.87;4.10;;;;;;;;;;5013241;28;20174;-76
2021/08/31 14:53:31;;;;;;;6.27;3.83;;;;;;;;;;5012905;28;20177;-76
2021/08/31 14:56:35;;;;;;;6.43;3.97;;;;;;;;;;5013850;28;20205;-76
2021/08/31 14:59:39;;;;;;;6.30;3.70;;;;;;;;;;5013678;28;20189;-76
2021/08/31 15:02:43;;;;;;;11.63;4.10;;;;;;;;;;5013622;28;20577;-76
2021/08/31 15:05:48;;;;;;;3.87;3.47;;;;;;;;;;5013121;28;20609;-76
2021/08/31 15:08:52;;;;;;;7.20;3.47;;;;;;;;;;5042418;22;20579;-82
2021/08/31 15:11:56;;;;;;;4.60;3.10;;;;;;;;;;5039010;28;20216;-82
2021/08/31 15:15:00;;;;;;;5.60;3.37;;;;;;;;;;5026740;28;20196;-81
2021/08/31 15:18:05;;;;;;;4.83;3.30;;;;;;;;;;5015976;28;20176;-81
2021/08/31 15:21:09;;;;;;;7.63;3.50;;;;;;;;;;5038602;28;20216;-81
2021/08/31 15:24:13;;;;;;;27.53;4.50;;;;;;;;;;5037498;28;20177;-82
2021/08/31 15:27:22;;;;;;;5.67;3.50;;;;;;;;;;5025391;28;20520;-80
2021/08/31 15:30:26;;;;;;;5.60;3.20;;;;;;;;;;5036874;28;20201;-81
2021/08/31 15:33:30;;;;;;;7.03;3.30;;;;;;;;;;5037111;28;20184;-82
2021/08/31 15:36:36;;;;;;;7.43;3.50;;;;;;;;;;5037898;28;20176;-81
2021/08/31 15:39:42;;;;;;;6.53;3.50;;;;;;;;;;5037881;28;20205;-82
2021/08/31 15:42:47;;;;;;;7.57;3.53;;;;;;;;;;5014548;28;20220;-82
2021/08/31 15:45:52;;;;;;;4.00;3.13;;;;;;;;;;5037222;28;20189;-81
2021/08/31 15:48:56;;;;;;;3.83;3.40;;;;;;;;;;5026171;28;20205;-81
2021/08/31 15:52:02;;;;;;;4.03;3.33;;;;;;;;;;5037299;28;20236;-82
2021/08/31 15:55:07;;;;;;;6.47;3.63;;;;;;;;;;5037906;28;20200;-81
2021/08/31 15:58:12;;;;;;;6.60;3.57;;;;;;;;;;5025740;28;20181;-81
2021/08/31 16:01:16;;;;;;;5.77;3.73;;;;;;;;;;5038297;28;20204;-81
2021/08/31 16:04:20;;;;;;;4.43;3.67;;;;;;;;;;5015063;28;20184;-81
2021/08/31 16:07:24;;;;;;;4.77;3.63;;;;;;;;;;5018812;28;20188;-81
2021/08/31 16:10:29;;;;;;;3.70;3.30;;;;;;;;;;5029014;28;20196;-81
2021/08/31 16:13:33;;;;;;;4.33;3.23;;;;;;;;;;5028898;28;20659;-81
2021/08/31 16:16:37;;;;;;;4.37;3.90;;;;;;;;;;5017544;28;20177;-81
2021/08/31 16:19:41;;;;;;;6.87;3.80;;;;;;;;;;5017615;28;20505;-81
2021/08/31 16:22:45;;;;;;;4.77;3.50;;;;;;;;;;5040329;28;20220;-82
2021/08/31 16:25:49;;;;;;;5.23;3.53;;;;;;;;;;5028785;28;20189;-81
2021/08/31 16:28:54;;;;;;;5.23;3.90;;;;;;;;;;5013540;28;20681;-80
2021/08/31 16:31:58;;;;;;;5.07;3.47;;;;;;;;;;5015365;28;20221;-81
2021/08/31 16:35:03;;;;;;;30.27;5.63;;;;;;;;;;5004509;28;20185;-82
2021/08/31 16:38:07;;;;;;;19.33;4.57;;;;;;;;;;5015582;28;20198;-81
2021/08/31 16:41:11;;;;;;;5.50;3.87;;;;;;;;;;4993496;28;20553;-81
2021/08/31 16:44:16;;;;;;;6.23;3.80;;;;;;;;;;5016226;28;20182;-83
2021/08/31 16:47:20;;;;;;;7.27;3.70;;;;;;;;;;5015612;28;20201;-83
2021/08/31 16:50:24;;;;;;;6.50;3.77;;;;;;;;;;5003734;28;20220;-83
2021/08/31 16:53:29;;;;;;;4.77;3.73;;;;;;;;;;5003653;28;20186;-81
2021/08/31 16:56:34;;;;;;;5.47;4.10;;;;;;;;;;5003397;28;20177;-83
2021/08/31 16:59:38;;;;;;;6.93;3.90;;;;;;;;;;5014378;28;20181;-82
2021/08/31 17:02:42;;;;;;;5.97;4.50;;;;;;;;;;5004469;28;20217;-82
2021/08/31 17:05:46;;;;;;;8.43;4.33;;;;;;;;;;5014715;28;20201;-83
2021/08/31 17:08:51;;;;;;;4.17;3.60;;;;;;;;;;5016126;28;20213;-84
2021/08/31 17:11:55;;;;;;;6.93;4.07;;;;;;;;;;5016014;28;20217;-83
2021/08/31 17:14:59;;;;;;;9.33;3.93;;;;;;;;;;5025621;28;20671;-82
2021/08/31 17:18:03;;;;;;;8.17;4.13;;;;;;;;;;5015171;28;20648;-81
2021/08/31 17:21:07;;;;;;;6.57;3.87;;;;;;;;;;5015671;28;20220;-84
2021/08/31 17:24:11;;;;;;;6.10;4.20;;;;;;;;;;5005033;28;20533;-85
2021/08/31 17:27:16;;;;;;;6.87;4.03;;;;;;;;;;5004017;28;20197;-84
2021/08/31 17:30:21;;;;;;;8.20;4.17;;;;;;;;;;5005230;28;20561;-83
2021/08/31 17:33:25;;;;;;;6.97;4.40;;;;;;;;;;5015967;28;20202;-81
2021/08/31 17:36:29;;;;;;;5.93;3.93;;;;;;;;;;5014083;28;20189;-81
2021/08/31 17:39:33;;;;;;;7.10;4.37;;;;;;;;;;5002089;28;20173;-82
2021/08/31 17:42:38;;;;;;;6.60;4.23;;;;;;;;;;5001325;28;20224;-82
2021/08/31 17:45:42;;;;;;;5.73;4.27;;;;;;;;;;5024994;28;20186;-81
2021/08/31 17:48:46;;;;;;;4.90;3.97;;;;;;;;;;5013177;28;20189;-83
2021/08/31 17:51:50;;;;;;;4.43;3.57;;;;;;;;;;5001835;28;20205;-80
2021/08/31 17:55:01;;;;;;;6.30;4.43;;;;;;;;;;5013272;28;20194;-85
2021/08/31 17:58:06;;;;;;;6.30;4.73;;;;;;;;;;5002283;28;20211;-85
2021/08/31 18:01:10;;;;;;;4.63;4.07;;;;;;;;;;5003537;28;20213;-82
2021/08/31 18:04:14;;;;;;;6.87;4.10;;;;;;;;;;5015089;28;20193;-79
2021/08/31 18:07:19;;;;;;;5.87;4.80;;;;;;;;;;5028490;28;20656;-80
2021/08/31 18:10:23;;;;;;;4.77;3.83;;;;;;;;;;5025833;28;20197;-84
2021/08/31 18:13:27;;;;;;;6.23;4.73;;;;;;;;;;5014812;28;20236;-84
2021/08/31 18:16:32;;;;;;;5.43;4.37;;;;;;;;;;5021521;28;20679;-83
2021/08/31 18:19:36;;;;;;;5.77;4.93;;;;;;;;;;5023193;28;20184;-83
2021/08/31 18:22:41;;;;;;;5.73;4.50;;;;;;;;;;5033129;28;20212;-79
2021/08/31 18:25:46;;;;;;;6.80;4.60;;;;;;;;;;5032698;28;20189;-79
2021/08/31 18:28:50;;;;;;;7.00;5.07;;;;;;;;;;5032941;28;20181;-78
2021/08/31 18:31:54;;;;;;;5.53;4.67;;;;;;;;;;5034109;28;20212;-84